Time,TemperatureF,DewpointF,PressureIn,WindDirection,WindDirectionDegrees,WindSpeedMPH,WindSpeedGustMPH,Humidity,HourlyPrecipIn,Conditions,Clouds,dailyrainin,SoftwareType,DateUTC
2013-04-13 00:02:00,63.8,45.0,29.92,ESE,123,0.0,-999.0,51,-99.99,,,0.00,weatherlink.com 1.10,2013-04-13 05:02:00,
2013-04-13 00:17:00,63.9,45.0,29.91,ESE,118,0.0,-999.0,50,-99.99,,,0.00,weatherlink.com 1.10,2013-04-13 05:17:00,
2013-04-13 00:32:00,63.8,44.0,29.92,East,91,3.0,-999.0,49,-99.99,,,0.00,weatherlink.com 1.10,2013-04-13 05:32:00,
2013-04-13 00:48:00,63.6,44.0,29.92,ESE,107,0.0,-999.0,49,-99.99,,,0.00,weatherlink.com 1.10,2013-04-13 05:48:00,
2013-04-13 01:02:00,63.7,43.0,29.92,SE,124,0.0,-999.0,48,-99.99,,,0.00,weatherlink.com 1.10,2013-04-13 06:02:00,
2013-04-13 01:17:00,63.9,43.0,29.92,SE,133,0.0,-999.0,47,-99.99,,,0.00,weatherlink.com 1.10,2013-04-13 06:17:00,
2013-04-13 01:47:00,63.1,43.0,29.92,ESE,120,0.0,-999.0,48,-99.99,,,0.00,weatherlink.com 1.10,2013-04-13 06:47:00,
2013-04-13 02:02:00,62.7,43.0,29.92,East,96,0.0,-999.0,48,-99.99,,,0.00,weatherlink.com 1.10,2013-04-13 07:02:00,
2013-04-13 02:17:00,62.4,42.0,29.91,ESE,112,0.0,-999.0,48,-99.99,,,0.00,weatherlink.com 1.10,2013-04-13 07:17:00,
2013-04-13 02:32:00,62.2,43.0,29.91,SE,142,0.0,-999.0,50,-99.99,,,0.00,weatherlink.com 1.10,2013-04-13 07:32:00,
2013-04-13 02:47:00,61.6,43.0,29.91,SE,131,0.0,-999.0,51,-99.99,,,0.00,weatherlink.com 1.10,2013-04-13 07:47:00,
2013-04-13 03:02:00,60.9,44.0,29.91,South,178,0.0,-999.0,54,-99.99,,,0.00,weatherlink.com 1.10,2013-04-13 08:02:00,
2013-04-13 03:17:00,60.1,44.0,29.90,SSW,192,0.0,-999.0,56,-99.99,,,0.00,weatherlink.com 1.10,2013-04-13 08:17:00,
2013-04-13 03:33:00,59.5,44.0,29.90,ESE,103,0.0,-999.0,58,-99.99,,,0.00,weatherlink.com 1.10,2013-04-13 08:33:00,
2013-04-13 04:03:00,59.0,44.0,29.90,ESE,123,0.0,-999.0,59,-99.99,,,0.00,weatherlink.com 1.10,2013-04-13 09:03:00,
2013-04-13 04:18:00,58.5,44.0,29.91,ESE,123,0.0,-999.0,60,-99.99,,,0.00,weatherlink.com 1.10,2013-04-13 09:18:00,
2013-04-13 04:33:00,58.1,45.0,29.91,SE,125,0.0,-999.0,61,-99.99,,,0.00,weatherlink.com 1.10,2013-04-13 09:33:00,
2013-04-13 05:03:00,57.7,45.0,29.91,SE,128,0.0,-999.0,63,-99.99,,,0.00,weatherlink.com 1.10,2013-04-13 10:03:00,
2013-04-13 05:18:00,57.1,45.0,29.91,SE,128,0.0,-999.0,64,-99.99,,,0.00,weatherlink.com 1.10,2013-04-13 10:18:00,
2013-04-13 05:33:00,56.6,45.0,29.91,SE,129,0.0,-999.0,66,-99.99,,,0.00,weatherlink.com 1.10,2013-04-13 10:33:00,
2013-04-13 05:48:00,56.9,46.0,29.91,SE,129,0.0,-999.0,67,-99.99,,,0.00,weatherlink.com 1.10,2013-04-13 10:48:00,
2013-04-13 06:33:00,56.7,46.0,29.91,SE,129,0.0,-999.0,67,-99.99,,,0.00,weatherlink.com 1.10,2013-04-13 11:33:00,
2013-04-13 06:48:00,56.2,46.0,29.93,SE,129,0.0,-999.0,68,-99.99,,,0.00,weatherlink.com 1.10,2013-04-13 11:48:00,
2013-04-13 07:03:00,55.6,46.0,29.93,SE,129,0.0,-999.0,70,-99.99,,,0.00,weatherlink.com 1.10,2013-04-13 12:03:00,
2013-04-13 07:18:00,55.0,46.0,29.94,SE,129,0.0,-999.0,72,-99.99,,,0.00,weatherlink.com 1.10,2013-04-13 12:18:00,
2013-04-13 07:48:00,56.4,47.0,29.96,SE,128,0.0,-999.0,71,-99.99,,,0.00,weatherlink.com 1.10,2013-04-13 12:48:00,
2013-04-13 08:03:00,56.9,47.0,29.97,SE,126,0.0,-999.0,69,-99.99,,,0.00,weatherlink.com 1.10,2013-04-13 13:03:00,
2013-04-13 08:18:00,57.8,47.0,29.97,SE,126,0.0,-999.0,68,-99.99,,,0.00,weatherlink.com 1.10,2013-04-13 13:18:00,
2013-04-13 08:33:00,59.1,48.0,29.98,ESE,103,0.0,-999.0,66,-99.99,,,0.00,weatherlink.com 1.10,2013-04-13 13:33:00,
2013-04-13 08:48:00,60.5,48.0,29.98,ESE,103,0.0,-999.0,64,-99.99,,,0.00,weatherlink.com 1.10,2013-04-13 13:48:00,
2013-04-13 09:03:00,62.2,49.0,29.98,ENE,77,0.0,-999.0,62,-99.99,,,0.00,weatherlink.com 1.10,2013-04-13 14:03:00,
2013-04-13 09:18:00,63.7,48.0,29.98,ESE,117,0.0,-999.0,58,-99.99,,,0.00,weatherlink.com 1.10,2013-04-13 14:18:00,
2013-04-13 09:33:00,64.8,49.0,29.98,ESE,113,0.0,-999.0,56,-99.99,,,0.00,weatherlink.com 1.10,2013-04-13 14:33:00,
2013-04-13 09:48:00,67.6,49.0,29.98,ESE,115,0.0,-999.0,51,-99.99,,,0.00,weatherlink.com 1.10,2013-04-13 14:48:00,
2013-04-13 10:03:00,69.0,48.0,29.97,SE,130,0.0,-999.0,48,-99.99,,,0.00,weatherlink.com 1.10,2013-04-13 15:03:00,
2013-04-13 10:18:00,69.8,49.0,29.97,ESE,116,5.0,-999.0,47,-99.99,,,0.00,weatherlink.com 1.10,2013-04-13 15:18:00,
2013-04-13 10:34:00,70.4,49.0,29.96,ESE,116,0.0,-999.0,46,-99.99,,,0.00,weatherlink.com 1.10,2013-04-13 15:34:00,
2013-04-13 10:49:00,71.3,49.0,29.96,East,101,4.0,-999.0,46,-99.99,,,0.00,weatherlink.com 1.10,2013-04-13 15:49:00,
2013-04-13 11:04:00,71.5,50.0,29.96,ESE,117,0.0,-999.0,47,-99.99,,,0.00,weatherlink.com 1.10,2013-04-13 16:04:00,
2013-04-13 11:19:00,72.8,50.0,29.96,ESE,123,0.0,-999.0,45,-99.99,,,0.00,weatherlink.com 1.10,2013-04-13 16:19:00,
2013-04-13 11:34:00,73.5,50.0,29.95,East,98,0.0,-999.0,43,-99.99,,,0.00,weatherlink.com 1.10,2013-04-13 16:34:00,
2013-04-13 11:49:00,73.0,49.0,29.93,ENE,62,3.0,-999.0,43,-99.99,,,0.00,weatherlink.com 1.10,2013-04-13 16:49:00,
2013-04-13 12:04:00,73.8,50.0,29.93,SSE,153,0.0,-999.0,43,-99.99,,,0.00,weatherlink.com 1.10,2013-04-13 17:04:00,
2013-04-13 12:19:00,74.2,50.0,29.92,ESE,111,3.0,-999.0,43,-99.99,,,0.00,weatherlink.com 1.10,2013-04-13 17:19:00,
2013-04-13 12:34:00,73.7,49.0,29.91,SSE,164,0.0,-999.0,42,-99.99,,,0.00,weatherlink.com 1.10,2013-04-13 17:34:00,
2013-04-13 12:49:00,74.9,50.0,29.91,SSE,167,0.0,-999.0,42,-99.99,,,0.00,weatherlink.com 1.10,2013-04-13 17:49:00,
2013-04-13 13:04:00,74.6,50.0,29.90,ESE,111,0.0,-999.0,42,-99.99,,,0.00,weatherlink.com 1.10,2013-04-13 18:04:00,
2013-04-13 13:19:00,76.0,51.0,29.89,South,182,1.0,-999.0,42,-99.99,,,0.00,weatherlink.com 1.10,2013-04-13 18:19:00,
2013-04-13 13:34:00,76.5,50.0,29.89,South,174,0.0,-999.0,39,-99.99,,,0.00,weatherlink.com 1.10,2013-04-13 18:34:00,
2013-04-13 13:49:00,77.3,50.0,29.88,East,84,0.0,-999.0,39,-99.99,,,0.00,weatherlink.com 1.10,2013-04-13 18:49:00,
2013-04-13 14:04:00,76.1,51.0,29.87,South,171,0.0,-999.0,41,-99.99,,,0.00,weatherlink.com 1.10,2013-04-13 19:04:00,
2013-04-13 14:19:00,77.3,49.0,29.86,ESE,107,0.0,-999.0,37,-99.99,,,0.00,weatherlink.com 1.10,2013-04-13 19:19:00,
2013-04-13 14:34:00,77.3,49.0,29.86,SE,139,5.0,-999.0,37,-99.99,,,0.00,weatherlink.com 1.10,2013-04-13 19:34:00,
2013-04-13 14:49:00,78.0,50.0,29.85,SE,135,0.0,-999.0,38,-99.99,,,0.00,weatherlink.com 1.10,2013-04-13 19:49:00,
2013-04-13 15:04:00,77.6,50.0,29.84,NE,47,0.0,-999.0,38,-99.99,,,0.00,weatherlink.com 1.10,2013-04-13 20:04:00,
2013-04-13 15:19:00,78.0,50.0,29.83,NNE,19,1.0,-999.0,38,-99.99,,,0.00,weatherlink.com 1.10,2013-04-13 20:19:00,
2013-04-13 15:34:00,78.7,51.0,29.83,South,171,1.0,-999.0,38,-99.99,,,0.00,weatherlink.com 1.10,2013-04-13 20:34:00,
2013-04-13 15:49:00,77.8,49.0,29.82,ESE,110,0.0,-999.0,37,-99.99,,,0.00,weatherlink.com 1.10,2013-04-13 20:49:00,
2013-04-13 16:04:00,78.9,51.0,29.81,SE,143,0.0,-999.0,38,-99.99,,,0.00,weatherlink.com 1.10,2013-04-13 21:04:00,
2013-04-13 16:19:00,78.7,50.0,29.80,WSW,244,1.0,-999.0,37,-99.99,,,0.00,weatherlink.com 1.10,2013-04-13 21:19:00,
2013-04-13 16:34:00,78.4,50.0,29.80,SE,132,1.0,-999.0,37,-99.99,,,0.00,weatherlink.com 1.10,2013-04-13 21:34:00,
2013-04-13 16:49:00,77.9,48.0,29.79,WSW,248,1.0,-999.0,35,-99.99,,,0.00,weatherlink.com 1.10,2013-04-13 21:49:00,
2013-04-13 17:04:00,78.3,49.0,29.79,SE,144,1.0,-999.0,36,-99.99,,,0.00,weatherlink.com 1.10,2013-04-13 22:04:00,
2013-04-13 17:19:00,78.4,49.0,29.79,SE,126,0.0,-999.0,36,-99.99,,,0.00,weatherlink.com 1.10,2013-04-13 22:19:00,
2013-04-13 17:34:00,77.5,48.0,29.78,SE,133,2.0,-999.0,36,-99.99,,,0.00,weatherlink.com 1.10,2013-04-13 22:34:00,
2013-04-13 17:49:00,76.9,50.0,29.78,SE,136,0.0,-999.0,39,-99.99,,,0.00,weatherlink.com 1.10,2013-04-13 22:49:00,
2013-04-13 18:04:00,76.3,49.0,29.78,SE,136,0.0,-999.0,39,-99.99,,,0.00,weatherlink.com 1.10,2013-04-13 23:04:00,
2013-04-13 18:19:00,76.7,49.0,29.78,ESE,118,0.0,-999.0,38,-99.99,,,0.00,weatherlink.com 1.10,2013-04-13 23:19:00,
2013-04-13 18:34:00,76.4,49.0,29.77,ESE,110,0.0,-999.0,38,-99.99,,,0.00,weatherlink.com 1.10,2013-04-13 23:34:00,
2013-04-13 18:49:00,75.8,48.0,29.77,ESE,102,2.0,-999.0,38,-99.99,,,0.00,weatherlink.com 1.10,2013-04-13 23:49:00,
2013-04-13 19:04:00,75.3,49.0,29.77,SE,134,0.0,-999.0,40,-99.99,,,0.00,weatherlink.com 1.10,2013-04-14 00:04:00,
2013-04-13 19:19:00,74.9,49.0,29.77,ESE,118,0.0,-999.0,40,-99.99,,,0.00,weatherlink.com 1.10,2013-04-14 00:19:00,
2013-04-13 19:34:00,74.1,49.0,29.76,ESE,112,7.0,-999.0,41,-99.99,,,0.00,weatherlink.com 1.10,2013-04-14 00:34:00,
2013-04-13 19:49:00,73.1,49.0,29.75,ESE,113,0.0,-999.0,42,-99.99,,,0.00,weatherlink.com 1.10,2013-04-14 00:49:00,
2013-04-13 20:04:00,72.2,49.0,29.75,SE,126,0.0,-999.0,44,-99.99,,,0.00,weatherlink.com 1.10,2013-04-14 01:04:00,
2013-04-13 20:20:00,71.4,49.0,29.75,ESE,109,0.0,-999.0,45,-99.99,,,0.00,weatherlink.com 1.10,2013-04-14 01:20:00,
2013-04-13 20:35:00,71.0,49.0,29.75,ESE,122,0.0,-999.0,46,-99.99,,,0.00,weatherlink.com 1.10,2013-04-14 01:35:00,
2013-04-13 20:50:00,70.5,49.0,29.75,ESE,123,0.0,-999.0,47,-99.99,,,0.00,weatherlink.com 1.10,2013-04-14 01:50:00,
2013-04-13 21:05:00,70.1,49.0,29.76,SSE,149,0.0,-999.0,48,-99.99,,,0.00,weatherlink.com 1.10,2013-04-14 02:05:00,
2013-04-13 21:20:00,69.9,50.0,29.76,ESE,108,0.0,-999.0,49,-99.99,,,0.00,weatherlink.com 1.10,2013-04-14 02:20:00,
2013-04-13 21:35:00,69.4,50.0,29.76,East,95,0.0,-999.0,50,-99.99,,,0.00,weatherlink.com 1.10,2013-04-14 02:35:00,
2013-04-13 21:50:00,69.2,50.0,29.76,SE,144,0.0,-999.0,51,-99.99,,,0.00,weatherlink.com 1.10,2013-04-14 02:50:00,
2013-04-13 22:05:00,68.8,50.0,29.77,ESE,114,0.0,-999.0,51,-99.99,,,0.00,weatherlink.com 1.10,2013-04-14 03:05:00,
2013-04-13 22:20:00,68.5,50.0,29.77,ESE,117,0.0,-999.0,51,-99.99,,,0.00,weatherlink.com 1.10,2013-04-14 03:20:00,
2013-04-13 22:35:00,68.1,49.0,29.77,SE,145,0.0,-999.0,50,-99.99,,,0.00,weatherlink.com 1.10,2013-04-14 03:35:00,
2013-04-13 22:50:00,67.5,49.0,29.77,South,181,0.0,-999.0,51,-99.99,,,0.00,weatherlink.com 1.10,2013-04-14 03:50:00,
2013-04-13 23:05:00,67.2,49.0,29.76,ESE,123,0.0,-999.0,52,-99.99,,,0.00,weatherlink.com 1.10,2013-04-14 04:05:00,
2013-04-13 23:20:00,66.8,49.0,29.76,SE,127,0.0,-999.0,53,-99.99,,,0.00,weatherlink.com 1.10,2013-04-14 04:20:00,
2013-04-13 23:35:00,66.4,49.0,29.77,SE,144,0.0,-999.0,53,-99.99,,,0.00,weatherlink.com 1.10,2013-04-14 04:35:00,
2013-04-13 23:50:00,65.9,49.0,29.76,South,187,0.0,-999.0,55,-99.99,,,0.00,weatherlink.com 1.10,2013-04-14 04:50:00,